sensor_id;sensor_type;location;lat;lon;timestamp;pressure;altitude;pressure_sealevel;temperature;humidity
76605;BME280;73179;50.978;16.998;2024-02-21T00:01:15;100862.00;;;4.89;94.99
76605;BME280;73179;50.978;16.998;2024-02-21T00:03:42;100841.09;;;4.79;94.43
76605;BME280;73179;50.978;16.998;2024-02-21T00:06:08;100859.00;;;4.97;93.79
76605;BME280;73179;50.978;16.998;2024-02-21T00:08:34;100850.00;;;4.91;93.36
76605;BME280;73179;50.978;16.998;2024-02-21T00:11:00;100830.28;;;4.86;93.31
76605;BME280;73179;50.978;16.998;2024-02-21T00:13:26;100844.63;;;4.91;92.99
76605;BME280;73179;50.978;16.998;2024-02-21T00:15:52;100826.44;;;4.93;92.99
76605;BME280;73179;50.978;16.998;2024-02-21T00:18:18;100814.88;;;4.81;92.49
76605;BME280;73179;50.978;16.998;2024-02-21T00:20:46;100833.81;;;4.98;92.92
76605;BME280;73179;50.978;16.998;2024-02-21T00:23:36;100849.22;;;5.14;92.57
76605;BME280;73179;50.978;16.998;2024-02-21T00:26:02;100830.31;;;4.97;92.61
76605;BME280;73179;50.978;16.998;2024-02-21T00:28:28;100842.66;;;5.10;92.40
76605;BME280;73179;50.978;16.998;2024-02-21T00:30:54;100832.41;;;5.07;92.70
76605;BME280;73179;50.978;16.998;2024-02-21T00:33:20;100826.13;;;5.01;92.77
76605;BME280;73179;50.978;16.998;2024-02-21T00:35:46;100815.81;;;4.98;92.55
76605;BME280;73179;50.978;16.998;2024-02-21T00:38:12;100835.22;;;5.12;92.39
76605;BME280;73179;50.978;16.998;2024-02-21T00:40:38;100825.31;;;5.12;92.94
76605;BME280;73179;50.978;16.998;2024-02-21T00:43:05;100797.28;;;4.97;92.50
76605;BME280;73179;50.978;16.998;2024-02-21T00:45:30;100820.50;;;5.14;92.39
76605;BME280;73179;50.978;16.998;2024-02-21T00:47:57;100839.91;;;5.28;92.03
76605;BME280;73179;50.978;16.998;2024-02-21T00:50:22;100780.25;;;4.91;92.06
76605;BME280;73179;50.978;16.998;2024-02-21T00:52:49;100814.72;;;5.17;92.09
76605;BME280;73179;50.978;16.998;2024-02-21T00:55:15;100812.81;;;5.18;91.98
76605;BME280;73179;50.978;16.998;2024-02-21T00:57:41;100796.63;;;5.13;91.38
76605;BME280;73179;50.978;16.998;2024-02-21T01:00:07;100790.91;;;5.09;91.39
76605;BME280;73179;50.978;16.998;2024-02-21T01:02:34;100812.38;;;5.21;91.54
76605;BME280;73179;50.978;16.998;2024-02-21T01:05:00;100831.72;;;5.35;91.60
76605;BME280;73179;50.978;16.998;2024-02-21T01:07:28;100803.03;;;5.23;91.21
76605;BME280;73179;50.978;16.998;2024-02-21T01:09:54;100790.56;;;5.17;91.55
76605;BME280;73179;50.978;16.998;2024-02-21T01:12:20;100805.59;;;5.30;91.53
76605;BME280;73179;50.978;16.998;2024-02-21T01:14:46;100796.72;;;5.18;91.98
76605;BME280;73179;50.978;16.998;2024-02-21T01:17:13;100791.00;;;5.14;92.04
76605;BME280;73179;50.978;16.998;2024-02-21T01:19:39;100789.00;;;5.21;91.29
76605;BME280;73179;50.978;16.998;2024-02-21T01:22:05;100783.41;;;5.23;91.11
76605;BME280;73179;50.978;16.998;2024-02-21T01:24:31;100770.69;;;5.18;91.70
76605;BME280;73179;50.978;16.998;2024-02-21T01:26:57;100786.22;;;5.28;91.66
76605;BME280;73179;50.978;16.998;2024-02-21T01:29:23;100784.38;;;5.28;92.26
76605;BME280;73179;50.978;16.998;2024-02-21T01:31:49;100801.84;;;5.43;91.92
76605;BME280;73179;50.978;16.998;2024-02-21T01:34:15;100768.34;;;5.22;92.47
76605;BME280;73179;50.978;16.998;2024-02-21T01:36:42;100779.22;;;5.27;92.87
76605;BME280;73179;50.978;16.998;2024-02-21T01:39:08;100770.59;;;5.25;92.94
76605;BME280;73179;50.978;16.998;2024-02-21T01:41:34;100754.25;;;5.15;92.92
76605;BME280;73179;50.978;16.998;2024-02-21T01:44:00;100790.50;;;5.41;93.25
76605;BME280;73179;50.978;16.998;2024-02-21T01:46:27;100772.00;;;5.27;93.06
76605;BME280;73179;50.978;16.998;2024-02-21T01:48:56;100765.56;;;5.28;92.92
76605;BME280;73179;50.978;16.998;2024-02-21T01:51:23;100779.78;;;5.41;93.51
76605;BME280;73179;50.978;16.998;2024-02-21T01:53:51;100738.41;;;5.13;93.09
76605;BME280;73179;50.978;16.998;2024-02-21T01:56:18;100758.09;;;5.31;92.79
76605;BME280;73179;50.978;16.998;2024-02-21T01:58:44;100750.63;;;5.33;92.99
76605;BME280;73179;50.978;16.998;2024-02-21T02:01:12;100751.69;;;5.32;93.06
76605;BME280;73179;50.978;16.998;2024-02-21T02:03:38;100764.25;;;5.43;92.74
76605;BME280;73179;50.978;16.998;2024-02-21T02:06:05;100739.53;;;5.29;92.24
76605;BME280;73179;50.978;16.998;2024-02-21T02:08:34;100736.63;;;5.31;92.94
76605;BME280;73179;50.978;16.998;2024-02-21T02:11:01;100737.44;;;5.31;92.54
76605;BME280;73179;50.978;16.998;2024-02-21T02:13:27;100706.53;;;5.17;91.98
76605;BME280;73179;50.978;16.998;2024-02-21T02:15:54;100729.16;;;5.33;91.56
76605;BME280;73179;50.978;16.998;2024-02-21T02:18:20;100700.91;;;5.18;91.85
76605;BME280;73179;50.978;16.998;2024-02-21T02:20:47;100719.47;;;5.32;91.47
76605;BME280;73179;50.978;16.998;2024-02-21T02:23:20;100738.13;;;5.38;91.80
76605;BME280;73179;50.978;16.998;2024-02-21T02:25:47;100720.31;;;5.20;91.28
76605;BME280;73179;50.978;16.998;2024-02-21T02:28:18;100719.72;;;5.18;92.02
76605;BME280;73179;50.978;16.998;2024-02-21T02:30:45;100719.47;;;5.20;91.99
76605;BME280;73179;50.978;16.998;2024-02-21T02:33:11;100697.34;;;5.01;91.87
76605;BME280;73179;50.978;16.998;2024-02-21T02:35:37;100715.03;;;5.02;92.75
76605;BME280;73179;50.978;16.998;2024-02-21T02:38:03;100700.13;;;4.95;92.63
76605;BME280;73179;50.978;16.998;2024-02-21T02:40:30;100714.59;;;5.05;93.66
76605;BME280;73179;50.978;16.998;2024-02-21T02:42:57;100725.56;;;5.04;93.36
76605;BME280;73179;50.978;16.998;2024-02-21T02:45:23;100692.31;;;4.82;93.66
76605;BME280;73179;50.978;16.998;2024-02-21T02:47:55;100701.75;;;4.84;93.37
76605;BME280;73179;50.978;16.998;2024-02-21T02:50:23;100716.22;;;4.95;93.31
76605;BME280;73179;50.978;16.998;2024-02-21T02:52:49;100691.50;;;4.81;93.07
76605;BME280;73179;50.978;16.998;2024-02-21T02:55:16;100701.75;;;4.84;93.07
76605;BME280;73179;50.978;16.998;2024-02-21T02:57:42;100683.13;;;4.77;93.34
76605;BME280;73179;50.978;16.998;2024-02-21T03:00:10;100687.53;;;4.72;93.19
76605;BME280;73179;50.978;16.998;2024-02-21T03:02:41;100710.75;;;4.90;93.39
76605;BME280;73179;50.978;16.998;2024-02-21T03:05:13;100713.09;;;4.86;93.43
76605;BME280;73179;50.978;16.998;2024-02-21T03:07:43;100708.16;;;4.83;93.72
76605;BME280;73179;50.978;16.998;2024-02-21T03:10:10;100689.16;;;4.61;93.50
76605;BME280;73179;50.978;16.998;2024-02-21T03:12:36;100714.13;;;4.73;94.17
76605;BME280;73179;50.978;16.998;2024-02-21T03:15:04;100705.47;;;4.71;93.91
76605;BME280;73179;50.978;16.998;2024-02-21T03:17:30;100659.44;;;4.40;94.26
76605;BME280;73179;50.978;16.998;2024-02-21T03:19:57;100687.66;;;4.54;94.48
76605;BME280;73179;50.978;16.998;2024-02-21T03:22:24;100669.00;;;4.47;94.70
76605;BME280;73179;50.978;16.998;2024-02-21T03:24:50;100679.38;;;4.55;94.61
76605;BME280;73179;50.978;16.998;2024-02-21T03:27:16;100670.53;;;4.55;94.50
76605;BME280;73179;50.978;16.998;2024-02-21T03:29:43;100680.56;;;4.59;94.18
76605;BME280;73179;50.978;16.998;2024-02-21T03:32:09;100669.22;;;4.57;94.48
76605;BME280;73179;50.978;16.998;2024-02-21T03:34:36;100667.94;;;4.60;94.40
76605;BME280;73179;50.978;16.998;2024-02-21T03:37:02;100661.88;;;4.53;94.34
76605;BME280;73179;50.978;16.998;2024-02-21T03:39:31;100669.22;;;4.57;94.79
76605;BME280;73179;50.978;16.998;2024-02-21T03:41:58;100664.09;;;4.56;94.29
76605;BME280;73179;50.978;16.998;2024-02-21T03:44:26;100693.72;;;4.72;94.44
76605;BME280;73179;50.978;16.998;2024-02-21T03:46:52;100660.97;;;4.59;94.97
76605;BME280;73179;50.978;16.998;2024-02-21T03:49:19;100623.75;;;4.27;94.01
76605;BME280;73179;50.978;16.998;2024-02-21T03:51:45;100675.75;;;4.61;94.50
76605;BME280;73179;50.978;16.998;2024-02-21T03:54:11;100672.03;;;4.62;94.42
76605;BME280;73179;50.978;16.998;2024-02-21T03:56:38;100686.50;;;4.73;94.28
76605;BME280;73179;50.978;16.998;2024-02-21T03:59:09;100669.81;;;4.59;94.49
76605;BME280;73179;50.978;16.998;2024-02-21T04:01:35;100691.84;;;4.73;94.40
76605;BME280;73179;50.978;16.998;2024-02-21T04:04:02;100667.50;;;4.63;94.57
76605;BME280;73179;50.978;16.998;2024-02-21T04:06:28;100679.97;;;4.69;95.03
76605;BME280;73179;50.978;16.998;2024-02-21T04:08:54;100684.75;;;4.78;94.68
76605;BME280;73179;50.978;16.998;2024-02-21T04:11:20;100649.41;;;4.58;94.09
76605;BME280;73179;50.978;16.998;2024-02-21T04:13:47;100666.56;;;4.69;94.01
76605;BME280;73179;50.978;16.998;2024-02-21T04:16:16;100669.94;;;4.76;94.30
76605;BME280;73179;50.978;16.998;2024-02-21T04:18:43;100662.34;;;4.73;94.24
76605;BME280;73179;50.978;16.998;2024-02-21T04:21:10;100660.97;;;4.82;93.97
76605;BME280;73179;50.978;16.998;2024-02-21T04:23:36;100636.00;;;4.70;93.17
76605;BME280;73179;50.978;16.998;2024-02-21T04:26:02;100651.06;;;4.83;93.12
76605;BME280;73179;50.978;16.998;2024-02-21T04:28:28;100649.41;;;4.82;92.95
76605;BME280;73179;50.978;16.998;2024-02-21T04:30:54;100649.88;;;4.90;92.77
76605;BME280;73179;50.978;16.998;2024-02-21T04:33:20;100653.94;;;4.93;92.66
76605;BME280;73179;50.978;16.998;2024-02-21T04:35:46;100626.19;;;4.75;92.60
76605;BME280;73179;50.978;16.998;2024-02-21T04:38:13;100633.53;;;4.80;92.51
76605;BME280;73179;50.978;16.998;2024-02-21T04:40:41;100632.72;;;4.79;92.55
76605;BME280;73179;50.978;16.998;2024-02-21T04:43:08;100629.22;;;4.67;92.71
76605;BME280;73179;50.978;16.998;2024-02-21T04:45:34;100634.72;;;4.72;92.57
76605;BME280;73179;50.978;16.998;2024-02-21T04:48:00;100622.25;;;4.66;92.46
76605;BME280;73179;50.978;16.998;2024-02-21T04:50:26;100627.50;;;4.73;92.36
76605;BME280;73179;50.978;16.998;2024-02-21T04:52:53;100587.88;;;4.52;92.16
76605;BME280;73179;50.978;16.998;2024-02-21T04:55:19;100620.97;;;4.69;92.18
76605;BME280;73179;50.978;16.998;2024-02-21T04:57:45;100632.38;;;4.88;91.79
76605;BME280;73179;50.978;16.998;2024-02-21T05:00:11;100629.13;;;4.86;91.99
76605;BME280;73179;50.978;16.998;2024-02-21T05:02:38;100631.00;;;4.85;91.97
76605;BME280;73179;50.978;16.998;2024-02-21T05:05:04;100625.28;;;4.82;91.82
76605;BME280;73179;50.978;16.998;2024-02-21T05:07:31;100619.78;;;4.88;91.39
76605;BME280;73179;50.978;16.998;2024-02-21T05:09:57;100629.34;;;4.96;91.73
76605;BME280;73179;50.978;16.998;2024-02-21T05:12:23;100613.94;;;4.91;91.56
76605;BME280;73179;50.978;16.998;2024-02-21T05:14:49;100605.31;;;4.89;90.99
76605;BME280;73179;50.978;16.998;2024-02-21T05:17:15;100628.41;;;5.02;90.95
76605;BME280;73179;50.978;16.998;2024-02-21T05:19:41;100608.56;;;4.91;90.91
76605;BME280;73179;50.978;16.998;2024-02-21T05:22:08;100610.81;;;4.94;91.41
76605;BME280;73179;50.978;16.998;2024-02-21T05:24:33;100612.91;;;4.92;91.03
76605;BME280;73179;50.978;16.998;2024-02-21T05:27:00;100601.34;;;4.92;90.76
76605;BME280;73179;50.978;16.998;2024-02-21T05:29:25;100603.31;;;4.96;90.57
76605;BME280;73179;50.978;16.998;2024-02-21T05:34:19;100603.66;;;5.00;90.94
76605;BME280;73179;50.978;16.998;2024-02-21T05:36:45;100588.28;;;4.95;90.62
76605;BME280;73179;50.978;16.998;2024-02-21T05:39:13;100594.25;;;4.97;90.81
76605;BME280;73179;50.978;16.998;2024-02-21T05:41:40;100618.44;;;5.14;90.79
76605;BME280;73179;50.978;16.998;2024-02-21T05:44:07;100592.72;;;5.01;90.42
76605;BME280;73179;50.978;16.998;2024-02-21T05:46:33;100586.53;;;5.01;90.42
76605;BME280;73179;50.978;16.998;2024-02-21T05:48:59;100610.97;;;5.16;90.20
76605;BME280;73179;50.978;16.998;2024-02-21T05:51:25;100590.22;;;5.11;90.18
76605;BME280;73179;50.978;16.998;2024-02-21T05:53:51;100597.34;;;5.17;90.22
76605;BME280;73179;50.978;16.998;2024-02-21T05:56:17;100594.41;;;5.19;89.56
76605;BME280;73179;50.978;16.998;2024-02-21T05:58:43;100593.56;;;5.18;89.47
76605;BME280;73179;50.978;16.998;2024-02-21T06:01:10;100586.50;;;5.12;90.12
76605;BME280;73179;50.978;16.998;2024-02-21T06:03:36;100589.41;;;5.11;90.29
76605;BME280;73179;50.978;16.998;2024-02-21T06:06:02;100601.75;;;5.23;90.39
76605;BME280;73179;50.978;16.998;2024-02-21T06:08:28;100576.25;;;5.09;90.06
76605;BME280;73179;50.978;16.998;2024-02-21T06:10:55;100563.28;;;5.06;89.93
76605;BME280;73179;50.978;16.998;2024-02-21T06:13:24;100590.41;;;5.21;89.82
76605;BME280;73179;50.978;16.998;2024-02-21T06:15:50;100602.41;;;5.31;89.82
76605;BME280;73179;50.978;16.998;2024-02-21T06:18:20;100577.41;;;5.13;90.33
76605;BME280;73179;50.978;16.998;2024-02-21T06:20:47;100592.31;;;5.21;89.96
76605;BME280;73179;50.978;16.998;2024-02-21T06:23:14;100593.22;;;5.26;89.71
76605;BME280;73179;50.978;16.998;2024-02-21T06:25:41;100582.84;;;5.18;90.04
76605;BME280;73179;50.978;16.998;2024-02-21T06:28:07;100592.66;;;5.24;90.12
76605;BME280;73179;50.978;16.998;2024-02-21T06:30:33;100591.13;;;5.28;89.43
76605;BME280;73179;50.978;16.998;2024-02-21T06:32:59;100591.34;;;5.27;89.83
76605;BME280;73179;50.978;16.998;2024-02-21T06:35:26;100582.59;;;5.32;89.71
76605;BME280;73179;50.978;16.998;2024-02-21T06:37:52;100590.38;;;5.33;89.87
76605;BME280;73179;50.978;16.998;2024-02-21T06:40:22;100586.97;;;5.38;90.18
76605;BME280;73179;50.978;16.998;2024-02-21T06:42:50;100599.03;;;5.35;90.07
76605;BME280;73179;50.978;16.998;2024-02-21T06:45:16;100594.94;;;5.33;90.10
76605;BME280;73179;50.978;16.998;2024-02-21T06:47:42;100589.00;;;5.31;90.53
76605;BME280;73179;50.978;16.998;2024-02-21T06:50:09;100594.91;;;5.44;90.12
76605;BME280;73179;50.978;16.998;2024-02-21T06:52:36;100580.47;;;5.34;90.40
76605;BME280;73179;50.978;16.998;2024-02-21T06:55:03;100534.84;;;5.05;90.29
76605;BME280;73179;50.978;16.998;2024-02-21T06:57:29;100591.16;;;5.45;90.94
76605;BME280;73179;50.978;16.998;2024-02-21T06:59:55;100588.94;;;5.42;90.90
76605;BME280;73179;50.978;16.998;2024-02-21T07:02:21;100590.44;;;5.50;90.86
76605;BME280;73179;50.978;16.998;2024-02-21T07:04:47;100598.81;;;5.53;91.43
76605;BME280;73179;50.978;16.998;2024-02-21T07:07:13;100607.53;;;5.60;91.19
76605;BME280;73179;50.978;16.998;2024-02-21T07:09:40;100579.69;;;5.50;91.77
76605;BME280;73179;50.978;16.998;2024-02-21T07:12:06;100582.47;;;5.55;90.94
76605;BME280;73179;50.978;16.998;2024-02-21T07:14:32;100584.78;;;5.63;91.39
76605;BME280;73179;50.978;16.998;2024-02-21T07:16:58;100593.81;;;5.73;91.14
76605;BME280;73179;50.978;16.998;2024-02-21T07:19:25;100575.41;;;5.65;91.71
76605;BME280;73179;50.978;16.998;2024-02-21T07:21:50;100567.84;;;5.62;91.82
76605;BME280;73179;50.978;16.998;2024-02-21T07:24:17;100583.91;;;5.74;91.02
76605;BME280;73179;50.978;16.998;2024-02-21T07:26:43;100561.16;;;5.65;92.00
76605;BME280;73179;50.978;16.998;2024-02-21T07:29:10;100577.31;;;5.82;92.22
76605;BME280;73179;50.978;16.998;2024-02-21T07:31:43;100579.31;;;5.86;92.58
76605;BME280;73179;50.978;16.998;2024-02-21T07:34:09;100567.03;;;5.90;91.49
76605;BME280;73179;50.978;16.998;2024-02-21T07:36:36;100582.97;;;5.97;91.79
76605;BME280;73179;50.978;16.998;2024-02-21T07:39:04;100570.75;;;5.89;91.23
76605;BME280;73179;50.978;16.998;2024-02-21T07:41:30;100568.06;;;5.89;91.65
76605;BME280;73179;50.978;16.998;2024-02-21T07:43:57;100561.38;;;5.92;91.97
76605;BME280;73179;50.978;16.998;2024-02-21T07:46:23;100580.44;;;6.07;92.31
76605;BME280;73179;50.978;16.998;2024-02-21T07:48:50;100576.63;;;6.03;92.35
76605;BME280;73179;50.978;16.998;2024-02-21T07:51:16;100556.94;;;5.97;91.83
76605;BME280;73179;50.978;16.998;2024-02-21T07:53:44;100556.03;;;6.08;91.73
76605;BME280;73179;50.978;16.998;2024-02-21T07:56:11;100554.47;;;6.12;91.74
76605;BME280;73179;50.978;16.998;2024-02-21T07:58:38;100555.69;;;6.21;91.52
76605;BME280;73179;50.978;16.998;2024-02-21T08:01:04;100537.94;;;6.20;90.99
76605;BME280;73179;50.978;16.998;2024-02-21T08:03:30;100546.88;;;6.26;89.70
76605;BME280;73179;50.978;16.998;2024-02-21T08:05:56;100546.16;;;6.31;89.75
76605;BME280;73179;50.978;16.998;2024-02-21T08:08:22;100539.72;;;6.32;90.08
76605;BME280;73179;50.978;16.998;2024-02-21T08:10:51;100538.47;;;6.39;89.77
76605;BME280;73179;50.978;16.998;2024-02-21T08:13:18;100560.38;;;6.48;89.22
76605;BME280;73179;50.978;16.998;2024-02-21T08:15:44;100564.69;;;6.49;90.41
76605;BME280;73179;50.978;16.998;2024-02-21T08:18:10;100557.44;;;6.49;89.63
76605;BME280;73179;50.978;16.998;2024-02-21T08:20:36;100520.41;;;6.35;90.30
76605;BME280;73179;50.978;16.998;2024-02-21T08:23:02;100541.16;;;6.39;90.63
76605;BME280;73179;50.978;16.998;2024-02-21T08:25:28;100531.72;;;6.37;90.84
76605;BME280;73179;50.978;16.998;2024-02-21T08:27:58;100532.91;;;6.46;90.17
76605;BME280;73179;50.978;16.998;2024-02-21T08:30:24;100526.16;;;6.43;90.40
76605;BME280;73179;50.978;16.998;2024-02-21T08:32:50;100534.78;;;6.45;90.24
76605;BME280;73179;50.978;16.998;2024-02-21T08:35:16;100540.81;;;6.52;90.39
76605;BME280;73179;50.978;16.998;2024-02-21T08:37:48;100527.63;;;6.51;90.20
76605;BME280;73179;50.978;16.998;2024-02-21T08:40:14;100510.66;;;6.50;89.66
76605;BME280;73179;50.978;16.998;2024-02-21T08:42:43;100535.97;;;6.71;90.14
76605;BME280;73179;50.978;16.998;2024-02-21T08:45:10;100512.09;;;6.58;90.60
76605;BME280;73179;50.978;16.998;2024-02-21T08:47:39;100524.13;;;6.72;90.26
76605;BME280;73179;50.978;16.998;2024-02-21T08:50:05;100528.44;;;6.73;89.07
76605;BME280;73179;50.978;16.998;2024-02-21T08:52:32;100524.69;;;6.74;89.50
76605;BME280;73179;50.978;16.998;2024-02-21T08:54:58;100531.28;;;6.83;90.19
76605;BME280;73179;50.978;16.998;2024-02-21T08:57:24;100532.56;;;6.81;89.89
76605;BME280;73179;50.978;16.998;2024-02-21T08:59:50;100515.38;;;6.82;90.87
76605;BME280;73179;50.978;16.998;2024-02-21T09:02:17;100510.31;;;6.85;90.37
76605;BME280;73179;50.978;16.998;2024-02-21T09:04:43;100512.84;;;6.97;89.63
76605;BME280;73179;50.978;16.998;2024-02-21T09:07:12;100505.66;;;7.02;89.62
76605;BME280;73179;50.978;16.998;2024-02-21T09:09:38;100497.75;;;6.96;88.70
76605;BME280;73179;50.978;16.998;2024-02-21T09:12:08;100515.47;;;7.13;88.87
76605;BME280;73179;50.978;16.998;2024-02-21T09:14:37;100523.19;;;7.32;89.16
76605;BME280;73179;50.978;16.998;2024-02-21T09:17:06;100504.28;;;7.27;88.77
76605;BME280;73179;50.978;16.998;2024-02-21T09:19:35;100504.41;;;7.37;90.41
76605;BME280;73179;50.978;16.998;2024-02-21T09:22:01;100496.34;;;7.37;88.06
76605;BME280;73179;50.978;16.998;2024-02-21T09:24:27;100512.28;;;7.43;86.76
76605;BME280;73179;50.978;16.998;2024-02-21T09:26:53;100486.84;;;7.29;87.48
76605;BME280;73179;50.978;16.998;2024-02-21T09:29:19;100480.84;;;7.22;87.50
76605;BME280;73179;50.978;16.998;2024-02-21T09:31:45;100513.84;;;7.39;86.51
76605;BME280;73179;50.978;16.998;2024-02-21T09:34:13;100513.75;;;7.29;86.59
76605;BME280;73179;50.978;16.998;2024-02-21T09:36:39;100500.19;;;7.19;87.31
76605;BME280;73179;50.978;16.998;2024-02-21T09:39:06;100523.13;;;7.27;88.04
76605;BME280;73179;50.978;16.998;2024-02-21T09:41:36;100493.94;;;7.13;88.02
76605;BME280;73179;50.978;16.998;2024-02-21T09:44:06;100496.38;;;7.15;87.00
76605;BME280;73179;50.978;16.998;2024-02-21T09:47:10;100505.94;;;7.28;86.71
76605;BME280;73179;50.978;16.998;2024-02-21T09:49:33;100505.94;;;7.28;87.58
76605;BME280;73179;50.978;16.998;2024-02-21T09:52:04;100511.88;;;7.30;87.62
76605;BME280;73179;50.978;16.998;2024-02-21T09:54:30;100482.34;;;7.13;87.81
76605;BME280;73179;50.978;16.998;2024-02-21T09:56:59;100489.47;;;7.24;87.93
76605;BME280;73179;50.978;16.998;2024-02-21T09:59:27;100486.84;;;7.29;87.79
76605;BME280;73179;50.978;16.998;2024-02-21T10:01:54;100478.69;;;7.24;87.51
76605;BME280;73179;50.978;16.998;2024-02-21T10:04:21;100455.75;;;7.16;87.98
76605;BME280;73179;50.978;16.998;2024-02-21T10:06:47;100495.56;;;7.41;88.25
76605;BME280;73179;50.978;16.998;2024-02-21T10:11:50;100509.59;;;7.43;87.89
76605;BME280;73179;50.978;16.998;2024-02-21T10:14:17;100488.75;;;7.34;87.76
76605;BME280;73179;50.978;16.998;2024-02-21T10:16:48;100495.22;;;7.33;86.49
76605;BME280;73179;50.978;16.998;2024-02-21T10:19:21;100493.28;;;7.28;86.90
76605;BME280;73179;50.978;16.998;2024-02-21T10:22:04;100490.34;;;7.30;85.92
76605;BME280;73179;50.978;16.998;2024-02-21T10:24:31;100482.66;;;7.16;85.88
76605;BME280;73179;50.978;16.998;2024-02-21T10:27:07;100500.84;;;7.31;86.39
76605;BME280;73179;50.978;16.998;2024-02-21T10:29:39;100469.13;;;7.11;86.49
76605;BME280;73179;50.978;16.998;2024-02-21T10:32:11;100507.56;;;7.29;87.26
76605;BME280;73179;50.978;16.998;2024-02-21T10:34:38;100492.09;;;7.19;87.48
76605;BME280;73179;50.978;16.998;2024-02-21T10:37:09;100470.16;;;7.05;87.12
76605;BME280;73179;50.978;16.998;2024-02-21T10:39:38;100492.38;;;7.17;87.32
76605;BME280;73179;50.978;16.998;2024-02-21T10:42:04;100492.91;;;7.19;88.55
76605;BME280;73179;50.978;16.998;2024-02-21T10:44:32;100474.66;;;7.22;87.96
76605;BME280;73179;50.978;16.998;2024-02-21T10:46:59;100469.56;;;7.25;88.20
76605;BME280;73179;50.978;16.998;2024-02-21T10:49:26;100477.38;;;7.27;88.05
76605;BME280;73179;50.978;16.998;2024-02-21T10:54:56;100478.59;;;7.41;86.98
76605;BME280;73179;50.978;16.998;2024-02-21T10:57:25;100455.00;;;7.26;87.84
76605;BME280;73179;50.978;16.998;2024-02-21T10:59:55;100452.13;;;7.33;86.92
76605;BME280;73179;50.978;16.998;2024-02-21T11:02:22;100457.66;;;7.48;86.75
76605;BME280;73179;50.978;16.998;2024-02-21T11:04:49;100443.31;;;7.42;87.30
76605;BME280;73179;50.978;16.998;2024-02-21T11:07:16;100440.66;;;7.47;85.93
76605;BME280;73179;50.978;16.998;2024-02-21T11:09:51;100431.84;;;7.57;86.22
76605;BME280;73179;50.978;16.998;2024-02-21T11:12:22;100430.59;;;7.64;86.60
76605;BME280;73179;50.978;16.998;2024-02-21T11:14:48;100404.94;;;7.62;86.66
76605;BME280;73179;50.978;16.998;2024-02-21T11:17:17;100428.78;;;7.80;87.12
76605;BME280;73179;50.978;16.998;2024-02-21T11:19:44;100413.22;;;7.92;87.61
76605;BME280;73179;50.978;16.998;2024-02-21T11:22:18;100427.81;;;7.96;86.08
76605;BME280;73179;50.978;16.998;2024-02-21T11:24:46;100395.38;;;7.81;86.07
76605;BME280;73179;50.978;16.998;2024-02-21T11:29:49;100408.75;;;8.08;85.60
76605;BME280;73179;50.978;16.998;2024-02-21T11:32:18;100410.41;;;8.19;87.01
76605;BME280;73179;50.978;16.998;2024-02-21T11:34:58;100397.22;;;8.18;86.55
76605;BME280;73179;50.978;16.998;2024-02-21T11:37:33;100386.44;;;8.18;85.38
76605;BME280;73179;50.978;16.998;2024-02-21T11:40:00;100400.00;;;8.33;85.63
76605;BME280;73179;50.978;16.998;2024-02-21T11:42:27;100401.38;;;8.40;84.89
76605;BME280;73179;50.978;16.998;2024-02-21T11:44:54;100392.22;;;8.41;84.21
76605;BME280;73179;50.978;16.998;2024-02-21T11:47:24;100355.16;;;8.27;84.19
76605;BME280;73179;50.978;16.998;2024-02-21T11:49:50;100350.94;;;8.36;84.63
76605;BME280;73179;50.978;16.998;2024-02-21T11:52:24;100375.56;;;8.70;85.56
76605;BME280;73179;50.978;16.998;2024-02-21T11:54:51;100349.38;;;8.65;84.22
76605;BME280;73179;50.978;16.998;2024-02-21T11:57:18;100368.84;;;8.72;80.83
76605;BME280;73179;50.978;16.998;2024-02-21T11:59:45;100397.72;;;8.82;81.66
76605;BME280;73179;50.978;16.998;2024-02-21T12:02:12;100375.56;;;8.65;79.33
76605;BME280;73179;50.978;16.998;2024-02-21T12:04:39;100382.84;;;8.64;79.26
76605;BME280;73179;50.978;16.998;2024-02-21T12:07:06;100384.69;;;8.53;79.30
76605;BME280;73179;50.978;16.998;2024-02-21T12:09:34;100366.91;;;8.52;79.46
76605;BME280;73179;50.978;16.998;2024-02-21T12:12:03;100365.03;;;8.53;79.54
76605;BME280;73179;50.978;16.998;2024-02-21T12:14:31;100355.56;;;8.55;79.08
76605;BME280;73179;50.978;16.998;2024-02-21T12:17:02;100363.41;;;8.62;79.47
76605;BME280;73179;50.978;16.998;2024-02-21T12:19:30;100351.53;;;8.58;78.53
76605;BME280;73179;50.978;16.998;2024-02-21T12:21:59;100343.72;;;8.56;79.65
76605;BME280;73179;50.978;16.998;2024-02-21T12:24:27;100344.25;;;8.58;78.37
76605;BME280;73179;50.978;16.998;2024-02-21T12:26:55;100334.81;;;8.61;79.70
76605;BME280;73179;50.978;16.998;2024-02-21T12:29:23;100332.66;;;8.68;78.91
76605;BME280;73179;50.978;16.998;2024-02-21T12:31:52;100317.00;;;8.60;77.29
76605;BME280;73179;50.978;16.998;2024-02-21T12:34:20;100316.47;;;8.68;79.46
76605;BME280;73179;50.978;16.998;2024-02-21T12:36:48;100345.13;;;8.94;80.19
76605;BME280;73179;50.978;16.998;2024-02-21T12:39:14;100325.94;;;8.86;79.24
76605;BME280;73179;50.978;16.998;2024-02-21T12:41:42;100328.91;;;8.89;79.67
76605;BME280;73179;50.978;16.998;2024-02-21T12:44:10;100318.38;;;8.93;80.09
76605;BME280;73179;50.978;16.998;2024-02-21T12:46:40;100323.53;;;8.99;78.89
76605;BME280;73179;50.978;16.998;2024-02-21T12:49:06;100311.66;;;8.95;78.38
76605;BME280;73179;50.978;16.998;2024-02-21T12:51:35;100319.75;;;8.95;77.46
76605;BME280;73179;50.978;16.998;2024-02-21T12:54:01;100300.56;;;8.87;77.70
76605;BME280;73179;50.978;16.998;2024-02-21T12:56:30;100321.06;;;8.93;78.25
76605;BME280;73179;50.978;16.998;2024-02-21T12:58:57;100310.28;;;8.93;78.39
76605;BME280;73179;50.978;16.998;2024-02-21T13:01:24;100295.44;;;8.85;77.92